Home > Products > Valid Products > TAF

000
FTUS43 KGRB 301133
TAFGRB
TAF
KGRB 301133Z 3012/0112 04008KT P6SM SCT120 BKN300
     FM301600 05010G18KT P6SM SCT100 BKN250
     FM302100 06015G25KT P6SM SCT040 BKN070
     FM010200 04012KT P6SM -RA BKN040 WS010/06030KT
     FM011000 01010KT 6SM -RA BKN025 WS010/06030KT=



000
FTUS43 KGRB 300520
TAFGRB
TAF
KGRB 300520Z 3006/0106 08005KT P6SM SKC
     FM300900 04008KT P6SM SCT040 SCT200
     FM301500 05010G16KT P6SM SCT040 BKN150
     FM302100 04015G20KT P6SM VCSH SCT020 BKN035=



000
FTUS43 KGRB 292322
TAFGRB
TAF
KGRB 292322Z 3000/3024 07006KT P6SM FEW060
     FM300900 04008KT P6SM SCT040
     FM301500 05010G16KT P6SM SCT040 BKN200
     FM302100 04015G20KT P6SM SCT020 BKN035=



000
FTUS43 KGRB 291826 AAA
TAFGRB
TAF AMD
KGRB 291826Z 2918/3018 06008KT P6SM BKN060
     FM300000 06005KT P6SM SCT060
     FM300900 04008KT P6SM SCT040
     FM301500 05010G16KT P6SM SCT035=



000
FTUS43 KGRB 291731
TAFGRB
TAF
KGRB 291731Z 2918/3018 06008KT P6SM SCT040 SCT060
     FM300000 06005KT P6SM FEW060
     FM300900 04008KT P6SM SCT040
     FM301500 05010G16KT P6SM SCT035=



000
FTUS43 KGRB 291135
TAFGRB
TAF
KGRB 291135Z 2912/3012 02007KT P6SM SCT030 OVC045
     FM291900 05009KT P6SM SCT040 BKN060
     FM292300 07005KT P6SM SCT060
     FM300800 03007KT P6SM SCT070=



000
FTUS43 KGRB 291135
TAFGRB
TAF
KGRB 291135Z 2912/3012 02007KT P6SM SCT030 OVC045
     FM291900 05009KT P6SM SCT040 BKN060
     FM292300 07005KT P6SM SCT060
     FM300800 03007KT P6SM SCT070=



000
FTUS43 KGRB 290520
TAFGRB
TAF
KGRB 290520Z 2906/3006 02006KT P6SM VCSH OVC045
     FM290700 03007KT P6SM OVC045
     FM291900 05007KT P6SM SCT080=



000
FTUS43 KGRB 282324
TAFGRB
TAF
KGRB 282324Z 2900/2924 05010KT P6SM VCSH OVC050
     FM290200 05009KT P6SM VCSH OVC045
     FM290700 04008KT P6SM OVC045
     FM291900 05007KT P6SM SCT080=



000
FTUS43 KGRB 281928 AAC
TAFGRB
TAF AMD
KGRB 281928Z 2819/2918 06010KT P6SM VCSH OVC060
     FM290000 04011KT P6SM VCSH OVC070
     FM291000 04008KT P6SM BKN080=



000
FTUS43 KGRB 281928 AAC
TAFGRB
TAF AMD
KGRB 281928Z 2819/2918 06010KT P6SM VCSH OVC060
     FM290000 04011KT P6SM VCSH OVC070
     FM291000 04008KT P6SM BKN080=



000
FTUS43 KGRB 281720
TAFGRB
TAF
KGRB 281720Z 2818/2918 06011G18KT P6SM VCSH OVC070
     FM290000 04011KT P6SM VCSH OVC070
     FM291000 04008KT P6SM BKN080=



000
FTUS43 KGRB 281554 AAA
TAFGRB
TAF AMD
KGRB 281554Z 2816/2912 06012G18KT P6SM -SHRA SCT070 OVC090
     FM281800 07011G17KT P6SM OVC080
     FM290000 05008KT P6SM VCSH SCT060 OVC080
     FM290500 02005KT P6SM BKN090=



000
FTUS43 KGRB 281125
TAFGRB
TAF
KGRB 281125Z 2812/2912 05014KT P6SM VCSH BKN080 OVC100
     FM281500 06012G18KT P6SM VCSH SCT070 OVC090
     FM290000 05008KT P6SM VCSH SCT060 OVC080
     FM290500 02005KT P6SM BKN090=



000
FTUS43 KGRB 280520
TAFGRB
TAF
KGRB 280520Z 2806/2906 05016G24KT P6SM SCT090 OVC150
     FM281000 04012G22KT P6SM BKN080 OVC100
     FM281600 06012G18KT P6SM SCT070 OVC090
     FM290000 05008KT P6SM SCT060 OVC080=



000
FTUS43 KGRB 280341 AAB
TAFGRB
TAF AMD
KGRB 280341Z 2804/2824 05018G27KT P6SM SCT090 OVC150
     FM281000 04012G22KT P6SM BKN080 OVC100
     FM281600 06012G18KT P6SM SCT070 OVC090=



000
FTUS43 KGRB 280330 AAA
TAFGRB
TAF AMD
KGRB 280330Z 2804/2824 05015G23KT P6SM SCT090 OVC150
     FM281600 06012G18KT P6SM SCT070 OVC090=



000
FTUS43 KGRB 272320
TAFGRB
TAF
KGRB 272320Z 2800/2824 06012G21KT P6SM SCT100 OVC200
     FM280300 04013G20KT P6SM SCT090 OVC150
     FM281600 06012G18KT P6SM SCT070 OVC090=



000
FTUS43 KGRB 271728
TAFGRB
TAF
KGRB 271728Z 2718/2818 05015G24KT P6SM BKN200
     FM280200 05015KT P6SM OVC150
     FM280900 05013KT P6SM SCT060 OVC090
     FM281500 06010G16KT P6SM OVC080=



    US Dept of Commerce
    National Oceanic and Atmospheric Administration
    National Weather Service
    1325 East West Highway
    Silver Spring, MD 20910
    Page Author: NWS Internet Services Team
Disclaimer
Information Quality
Credits
Glossary
Privacy Policy
Freedom of Information Act (FOIA)
About Us
Career Opportunities